sensor_id;sensor_type;location;lat;lon;timestamp;P1;durP1;ratioP1;P2;durP2;ratioP2
15938;SDS011;8068;51.322;9.450;2022-12-10T00:01:40;14.33;;;11.67;;
15938;SDS011;8068;51.322;9.450;2022-12-10T00:04:09;12.83;;;11.50;;
15938;SDS011;8068;51.322;9.450;2022-12-10T00:06:39;16.90;;;13.47;;
15938;SDS011;8068;51.322;9.450;2022-12-10T00:09:17;18.43;;;12.70;;
15938;SDS011;8068;51.322;9.450;2022-12-10T00:11:46;15.63;;;12.07;;
15938;SDS011;8068;51.322;9.450;2022-12-10T00:14:15;16.00;;;13.00;;
15938;SDS011;8068;51.322;9.450;2022-12-10T00:16:45;15.83;;;13.10;;
15938;SDS011;8068;51.322;9.450;2022-12-10T00:19:15;15.63;;;12.60;;
15938;SDS011;8068;51.322;9.450;2022-12-10T00:21:44;12.27;;;11.13;;
15938;SDS011;8068;51.322;9.450;2022-12-10T00:24:14;13.20;;;11.90;;
15938;SDS011;8068;51.322;9.450;2022-12-10T00:26:47;14.20;;;12.00;;
15938;SDS011;8068;51.322;9.450;2022-12-10T00:29:16;14.17;;;12.10;;
15938;SDS011;8068;51.322;9.450;2022-12-10T00:31:46;16.90;;;12.77;;
15938;SDS011;8068;51.322;9.450;2022-12-10T00:34:16;15.73;;;12.83;;
15938;SDS011;8068;51.322;9.450;2022-12-10T00:36:47;15.33;;;13.50;;
15938;SDS011;8068;51.322;9.450;2022-12-10T00:39:17;15.27;;;13.00;;
15938;SDS011;8068;51.322;9.450;2022-12-10T00:41:46;19.47;;;13.70;;
15938;SDS011;8068;51.322;9.450;2022-12-10T00:44:18;14.93;;;12.67;;
15938;SDS011;8068;51.322;9.450;2022-12-10T00:46:48;17.90;;;14.10;;
15938;SDS011;8068;51.322;9.450;2022-12-10T00:49:18;16.67;;;13.87;;
15938;SDS011;8068;51.322;9.450;2022-12-10T00:51:48;16.90;;;13.70;;
15938;SDS011;8068;51.322;9.450;2022-12-10T00:54:20;18.40;;;14.10;;
15938;SDS011;8068;51.322;9.450;2022-12-10T00:56:50;17.30;;;13.50;;
15938;SDS011;8068;51.322;9.450;2022-12-10T00:59:20;19.07;;;14.30;;
15938;SDS011;8068;51.322;9.450;2022-12-10T01:01:50;23.83;;;13.23;;
15938;SDS011;8068;51.322;9.450;2022-12-10T01:04:20;17.70;;;13.83;;
15938;SDS011;8068;51.322;9.450;2022-12-10T01:06:53;15.23;;;12.67;;
15938;SDS011;8068;51.322;9.450;2022-12-10T01:09:21;17.77;;;14.37;;
15938;SDS011;8068;51.322;9.450;2022-12-10T01:11:56;21.37;;;13.37;;
15938;SDS011;8068;51.322;9.450;2022-12-10T01:14:27;19.00;;;14.30;;
15938;SDS011;8068;51.322;9.450;2022-12-10T01:16:58;17.77;;;13.10;;
15938;SDS011;8068;51.322;9.450;2022-12-10T01:19:38;16.10;;;12.97;;
15938;SDS011;8068;51.322;9.450;2022-12-10T01:22:08;17.90;;;13.30;;
15938;SDS011;8068;51.322;9.450;2022-12-10T01:24:38;16.20;;;13.20;;
15938;SDS011;8068;51.322;9.450;2022-12-10T01:27:07;19.60;;;14.70;;
15938;SDS011;8068;51.322;9.450;2022-12-10T01:29:37;17.70;;;14.10;;
15938;SDS011;8068;51.322;9.450;2022-12-10T01:32:07;16.17;;;13.80;;
15938;SDS011;8068;51.322;9.450;2022-12-10T01:34:37;18.73;;;14.93;;
15938;SDS011;8068;51.322;9.450;2022-12-10T01:37:11;15.53;;;13.73;;
15938;SDS011;8068;51.322;9.450;2022-12-10T01:39:41;16.10;;;12.87;;
15938;SDS011;8068;51.322;9.450;2022-12-10T01:42:11;16.10;;;13.77;;
15938;SDS011;8068;51.322;9.450;2022-12-10T01:47:09;15.40;;;13.23;;
15938;SDS011;8068;51.322;9.450;2022-12-10T01:49:40;16.07;;;12.60;;
15938;SDS011;8068;51.322;9.450;2022-12-10T01:52:10;16.53;;;13.73;;
15938;SDS011;8068;51.322;9.450;2022-12-10T01:54:47;18.37;;;12.73;;
15938;SDS011;8068;51.322;9.450;2022-12-10T01:57:26;16.13;;;13.57;;
15938;SDS011;8068;51.322;9.450;2022-12-10T01:59:54;16.70;;;13.50;;
15938;SDS011;8068;51.322;9.450;2022-12-10T02:02:42;19.20;;;14.37;;
15938;SDS011;8068;51.322;9.450;2022-12-10T02:05:25;16.00;;;13.03;;
15938;SDS011;8068;51.322;9.450;2022-12-10T02:08:24;16.40;;;13.43;;
15938;SDS011;8068;51.322;9.450;2022-12-10T02:17:58;16.77;;;13.30;;
15938;SDS011;8068;51.322;9.450;2022-12-10T02:20:14;16.90;;;13.17;;
15938;SDS011;8068;51.322;9.450;2022-12-10T02:22:46;16.97;;;13.77;;
15938;SDS011;8068;51.322;9.450;2022-12-10T02:25:15;16.93;;;13.37;;
15938;SDS011;8068;51.322;9.450;2022-12-10T02:27:57;15.90;;;12.80;;
15938;SDS011;8068;51.322;9.450;2022-12-10T02:30:33;18.03;;;12.87;;
15938;SDS011;8068;51.322;9.450;2022-12-10T02:33:00;18.07;;;14.70;;
15938;SDS011;8068;51.322;9.450;2022-12-10T02:35:32;16.40;;;12.90;;
15938;SDS011;8068;51.322;9.450;2022-12-10T02:38:06;19.10;;;14.00;;
15938;SDS011;8068;51.322;9.450;2022-12-10T02:41:02;17.70;;;14.17;;
15938;SDS011;8068;51.322;9.450;2022-12-10T02:43:35;16.37;;;13.47;;
15938;SDS011;8068;51.322;9.450;2022-12-10T02:46:06;19.70;;;13.83;;
15938;SDS011;8068;51.322;9.450;2022-12-10T02:48:40;17.10;;;14.10;;
15938;SDS011;8068;51.322;9.450;2022-12-10T02:51:14;18.83;;;14.00;;
15938;SDS011;8068;51.322;9.450;2022-12-10T02:53:45;18.07;;;13.60;;
15938;SDS011;8068;51.322;9.450;2022-12-10T02:56:23;18.20;;;13.70;;
15938;SDS011;8068;51.322;9.450;2022-12-10T03:05:29;22.17;;;15.07;;
15938;SDS011;8068;51.322;9.450;2022-12-10T03:07:33;22.13;;;15.30;;
15938;SDS011;8068;51.322;9.450;2022-12-10T03:10:18;20.60;;;15.00;;
15938;SDS011;8068;51.322;9.450;2022-12-10T03:13:04;19.80;;;14.27;;
15938;SDS011;8068;51.322;9.450;2022-12-10T03:15:38;18.30;;;13.73;;
15938;SDS011;8068;51.322;9.450;2022-12-10T03:18:09;17.23;;;13.80;;
15938;SDS011;8068;51.322;9.450;2022-12-10T03:20:41;20.60;;;15.17;;
15938;SDS011;8068;51.322;9.450;2022-12-10T03:23:15;16.77;;;13.33;;
15938;SDS011;8068;51.322;9.450;2022-12-10T03:25:49;21.07;;;13.63;;
15938;SDS011;8068;51.322;9.450;2022-12-10T03:28:19;18.20;;;13.30;;
15938;SDS011;8068;51.322;9.450;2022-12-10T03:30:51;15.13;;;13.27;;
15938;SDS011;8068;51.322;9.450;2022-12-10T03:33:22;17.20;;;13.50;;
15938;SDS011;8068;51.322;9.450;2022-12-10T03:35:58;19.00;;;13.73;;
15938;SDS011;8068;51.322;9.450;2022-12-10T03:38:28;16.97;;;14.10;;
15938;SDS011;8068;51.322;9.450;2022-12-10T03:40:58;17.57;;;14.20;;
15938;SDS011;8068;51.322;9.450;2022-12-10T03:43:28;16.47;;;13.93;;
15938;SDS011;8068;51.322;9.450;2022-12-10T03:45:59;15.33;;;13.40;;
15938;SDS011;8068;51.322;9.450;2022-12-10T03:48:29;17.63;;;12.70;;
15938;SDS011;8068;51.322;9.450;2022-12-10T03:51:00;16.80;;;13.67;;
15938;SDS011;8068;51.322;9.450;2022-12-10T03:53:36;16.87;;;12.93;;
15938;SDS011;8068;51.322;9.450;2022-12-10T03:56:06;16.30;;;13.57;;
15938;SDS011;8068;51.322;9.450;2022-12-10T03:58:36;18.23;;;14.63;;
15938;SDS011;8068;51.322;9.450;2022-12-10T04:01:07;22.30;;;15.60;;
15938;SDS011;8068;51.322;9.450;2022-12-10T04:03:38;16.17;;;13.53;;
15938;SDS011;8068;51.322;9.450;2022-12-10T04:06:12;17.10;;;13.63;;
15938;SDS011;8068;51.322;9.450;2022-12-10T04:08:43;17.80;;;13.90;;
15938;SDS011;8068;51.322;9.450;2022-12-10T04:11:14;20.47;;;15.27;;
15938;SDS011;8068;51.322;9.450;2022-12-10T04:13:46;23.87;;;15.80;;
15938;SDS011;8068;51.322;9.450;2022-12-10T04:16:38;21.00;;;15.13;;
15938;SDS011;8068;51.322;9.450;2022-12-10T04:19:10;22.60;;;15.70;;
15938;SDS011;8068;51.322;9.450;2022-12-10T04:21:43;18.80;;;14.80;;
15938;SDS011;8068;51.322;9.450;2022-12-10T04:24:30;19.10;;;14.80;;
15938;SDS011;8068;51.322;9.450;2022-12-10T04:27:17;20.90;;;14.80;;
15938;SDS011;8068;51.322;9.450;2022-12-10T04:29:46;19.03;;;14.63;;
15938;SDS011;8068;51.322;9.450;2022-12-10T04:32:16;18.93;;;14.80;;
15938;SDS011;8068;51.322;9.450;2022-12-10T04:34:43;18.80;;;14.57;;
15938;SDS011;8068;51.322;9.450;2022-12-10T04:37:09;22.47;;;16.57;;
15938;SDS011;8068;51.322;9.450;2022-12-10T04:39:37;24.90;;;16.63;;
15938;SDS011;8068;51.322;9.450;2022-12-10T04:42:06;21.63;;;15.93;;
15938;SDS011;8068;51.322;9.450;2022-12-10T04:44:33;21.50;;;14.77;;
15938;SDS011;8068;51.322;9.450;2022-12-10T04:47:00;25.37;;;16.50;;
15938;SDS011;8068;51.322;9.450;2022-12-10T04:49:31;27.73;;;18.27;;
15938;SDS011;8068;51.322;9.450;2022-12-10T04:52:01;24.80;;;16.23;;
15938;SDS011;8068;51.322;9.450;2022-12-10T04:54:32;25.27;;;18.00;;
15938;SDS011;8068;51.322;9.450;2022-12-10T04:57:04;24.83;;;16.77;;
15938;SDS011;8068;51.322;9.450;2022-12-10T04:59:40;27.93;;;17.77;;
15938;SDS011;8068;51.322;9.450;2022-12-10T05:02:10;24.80;;;17.33;;
15938;SDS011;8068;51.322;9.450;2022-12-10T05:04:39;26.80;;;18.07;;
15938;SDS011;8068;51.322;9.450;2022-12-10T05:07:09;24.10;;;17.27;;
15938;SDS011;8068;51.322;9.450;2022-12-10T05:09:39;31.10;;;18.63;;
15938;SDS011;8068;51.322;9.450;2022-12-10T05:12:09;25.57;;;18.07;;
15938;SDS011;8068;51.322;9.450;2022-12-10T05:14:38;30.90;;;18.93;;
15938;SDS011;8068;51.322;9.450;2022-12-10T05:17:13;29.00;;;17.70;;
15938;SDS011;8068;51.322;9.450;2022-12-10T05:19:43;29.50;;;18.57;;
15938;SDS011;8068;51.322;9.450;2022-12-10T05:22:13;35.97;;;21.40;;
15938;SDS011;8068;51.322;9.450;2022-12-10T05:25:01;32.40;;;17.47;;
15938;SDS011;8068;51.322;9.450;2022-12-10T05:27:30;34.20;;;20.80;;
15938;SDS011;8068;51.322;9.450;2022-12-10T05:29:57;32.87;;;20.10;;
15938;SDS011;8068;51.322;9.450;2022-12-10T05:32:23;30.90;;;20.13;;
15938;SDS011;8068;51.322;9.450;2022-12-10T05:34:54;33.73;;;21.43;;
15938;SDS011;8068;51.322;9.450;2022-12-10T05:37:20;34.47;;;21.20;;
15938;SDS011;8068;51.322;9.450;2022-12-10T05:39:47;40.13;;;22.33;;
15938;SDS011;8068;51.322;9.450;2022-12-10T05:42:13;33.57;;;19.93;;
15938;SDS011;8068;51.322;9.450;2022-12-10T05:44:45;34.80;;;20.47;;
15938;SDS011;8068;51.322;9.450;2022-12-10T05:47:15;34.50;;;21.00;;
15938;SDS011;8068;51.322;9.450;2022-12-10T05:49:45;32.87;;;22.03;;
15938;SDS011;8068;51.322;9.450;2022-12-10T05:52:26;35.57;;;21.80;;
15938;SDS011;8068;51.322;9.450;2022-12-10T05:54:52;32.87;;;20.87;;
15938;SDS011;8068;51.322;9.450;2022-12-10T05:57:18;38.93;;;20.90;;
15938;SDS011;8068;51.322;9.450;2022-12-10T05:59:44;34.13;;;20.67;;
15938;SDS011;8068;51.322;9.450;2022-12-10T06:02:17;35.30;;;21.23;;
15938;SDS011;8068;51.322;9.450;2022-12-10T06:04:47;34.43;;;21.80;;
15938;SDS011;8068;51.322;9.450;2022-12-10T06:07:16;34.10;;;20.33;;
15938;SDS011;8068;51.322;9.450;2022-12-10T06:09:46;36.57;;;21.00;;
15938;SDS011;8068;51.322;9.450;2022-12-10T06:12:15;33.93;;;20.07;;
15938;SDS011;8068;51.322;9.450;2022-12-10T06:14:46;36.13;;;21.00;;
15938;SDS011;8068;51.322;9.450;2022-12-10T06:17:15;34.43;;;20.73;;
15938;SDS011;8068;51.322;9.450;2022-12-10T06:19:44;34.03;;;21.70;;
15938;SDS011;8068;51.322;9.450;2022-12-10T06:22:14;37.47;;;21.40;;
15938;SDS011;8068;51.322;9.450;2022-12-10T06:24:44;36.40;;;21.97;;
15938;SDS011;8068;51.322;9.450;2022-12-10T06:27:14;38.20;;;21.87;;
15938;SDS011;8068;51.322;9.450;2022-12-10T06:29:51;41.83;;;21.50;;
15938;SDS011;8068;51.322;9.450;2022-12-10T06:32:20;35.70;;;21.30;;
15938;SDS011;8068;51.322;9.450;2022-12-10T06:34:49;33.60;;;20.30;;
15938;SDS011;8068;51.322;9.450;2022-12-10T06:37:19;35.20;;;19.83;;
15938;SDS011;8068;51.322;9.450;2022-12-10T06:39:50;32.20;;;19.60;;
15938;SDS011;8068;51.322;9.450;2022-12-10T06:42:18;36.07;;;19.40;;
15938;SDS011;8068;51.322;9.450;2022-12-10T06:44:47;36.43;;;19.80;;
15938;SDS011;8068;51.322;9.450;2022-12-10T06:47:19;36.43;;;19.70;;
15938;SDS011;8068;51.322;9.450;2022-12-10T06:49:49;35.53;;;20.70;;
15938;SDS011;8068;51.322;9.450;2022-12-10T06:52:19;32.97;;;19.50;;
15938;SDS011;8068;51.322;9.450;2022-12-10T06:54:48;34.97;;;19.13;;
15938;SDS011;8068;51.322;9.450;2022-12-10T06:57:21;33.83;;;19.83;;
15938;SDS011;8068;51.322;9.450;2022-12-10T06:59:50;34.60;;;18.97;;
15938;SDS011;8068;51.322;9.450;2022-12-10T07:02:20;34.80;;;18.77;;
15938;SDS011;8068;51.322;9.450;2022-12-10T07:04:51;35.03;;;19.00;;
15938;SDS011;8068;51.322;9.450;2022-12-10T07:07:20;35.83;;;20.67;;
15938;SDS011;8068;51.322;9.450;2022-12-10T07:09:50;31.60;;;16.43;;
15938;SDS011;8068;51.322;9.450;2022-12-10T07:12:20;35.03;;;18.87;;
15938;SDS011;8068;51.322;9.450;2022-12-10T07:14:55;36.33;;;21.23;;
15938;SDS011;8068;51.322;9.450;2022-12-10T07:17:24;38.77;;;19.60;;
15938;SDS011;8068;51.322;9.450;2022-12-10T07:19:54;37.67;;;20.67;;
15938;SDS011;8068;51.322;9.450;2022-12-10T07:22:24;37.57;;;19.73;;
15938;SDS011;8068;51.322;9.450;2022-12-10T07:24:54;34.57;;;20.00;;
15938;SDS011;8068;51.322;9.450;2022-12-10T07:27:23;35.23;;;19.77;;
15938;SDS011;8068;51.322;9.450;2022-12-10T07:29:53;38.10;;;18.93;;
15938;SDS011;8068;51.322;9.450;2022-12-10T07:32:26;33.33;;;19.10;;
15938;SDS011;8068;51.322;9.450;2022-12-10T07:34:55;31.60;;;18.53;;
15938;SDS011;8068;51.322;9.450;2022-12-10T07:37:25;32.77;;;18.40;;
15938;SDS011;8068;51.322;9.450;2022-12-10T07:39:54;37.00;;;19.27;;
15938;SDS011;8068;51.322;9.450;2022-12-10T07:42:26;32.20;;;18.50;;
15938;SDS011;8068;51.322;9.450;2022-12-10T07:44:55;36.23;;;19.57;;
15938;SDS011;8068;51.322;9.450;2022-12-10T07:47:25;32.67;;;16.77;;
15938;SDS011;8068;51.322;9.450;2022-12-10T07:49:54;34.77;;;15.73;;
15938;SDS011;8068;51.322;9.450;2022-12-10T07:52:24;37.63;;;18.43;;
15938;SDS011;8068;51.322;9.450;2022-12-10T07:54:54;37.40;;;19.40;;
15938;SDS011;8068;51.322;9.450;2022-12-10T07:57:23;34.60;;;18.80;;
15938;SDS011;8068;51.322;9.450;2022-12-10T07:59:59;33.20;;;18.33;;
15938;SDS011;8068;51.322;9.450;2022-12-10T08:02:29;34.20;;;19.13;;
15938;SDS011;8068;51.322;9.450;2022-12-10T08:04:59;34.57;;;19.27;;
15938;SDS011;8068;51.322;9.450;2022-12-10T08:07:29;31.90;;;18.90;;
15938;SDS011;8068;51.322;9.450;2022-12-10T08:09:58;32.47;;;17.57;;
15938;SDS011;8068;51.322;9.450;2022-12-10T08:12:28;31.47;;;18.90;;
15938;SDS011;8068;51.322;9.450;2022-12-10T08:14:57;28.20;;;17.13;;
15938;SDS011;8068;51.322;9.450;2022-12-10T08:17:29;33.83;;;19.70;;
15938;SDS011;8068;51.322;9.450;2022-12-10T08:19:59;32.63;;;17.83;;
15938;SDS011;8068;51.322;9.450;2022-12-10T08:22:29;34.13;;;19.07;;
15938;SDS011;8068;51.322;9.450;2022-12-10T08:24:58;32.77;;;17.80;;
15938;SDS011;8068;51.322;9.450;2022-12-10T08:27:31;30.40;;;18.63;;
15938;SDS011;8068;51.322;9.450;2022-12-10T08:30:01;33.33;;;18.50;;
15938;SDS011;8068;51.322;9.450;2022-12-10T08:32:30;36.63;;;19.97;;
15938;SDS011;8068;51.322;9.450;2022-12-10T08:35:00;36.60;;;20.00;;
15938;SDS011;8068;51.322;9.450;2022-12-10T08:37:29;30.93;;;18.00;;
15938;SDS011;8068;51.322;9.450;2022-12-10T08:39:59;35.30;;;19.30;;
15938;SDS011;8068;51.322;9.450;2022-12-10T08:42:29;32.80;;;17.07;;
15938;SDS011;8068;51.322;9.450;2022-12-10T08:44:58;31.93;;;18.30;;
15938;SDS011;8068;51.322;9.450;2022-12-10T08:47:28;28.37;;;16.87;;
15938;SDS011;8068;51.322;9.450;2022-12-10T08:49:58;31.47;;;18.27;;
15938;SDS011;8068;51.322;9.450;2022-12-10T08:52:29;30.83;;;17.70;;
15938;SDS011;8068;51.322;9.450;2022-12-10T08:55:03;34.03;;;17.33;;
15938;SDS011;8068;51.322;9.450;2022-12-10T08:57:33;21.80;;;10.80;;
15938;SDS011;8068;51.322;9.450;2022-12-10T09:00:03;42.57;;;21.40;;
15938;SDS011;8068;51.322;9.450;2022-12-10T09:02:32;37.00;;;17.93;;
15938;SDS011;8068;51.322;9.450;2022-12-10T09:05:02;37.43;;;17.90;;
15938;SDS011;8068;51.322;9.450;2022-12-10T09:07:32;33.80;;;18.20;;
15938;SDS011;8068;51.322;9.450;2022-12-10T09:10:02;28.67;;;16.67;;
15938;SDS011;8068;51.322;9.450;2022-12-10T09:12:36;32.40;;;18.10;;
15938;SDS011;8068;51.322;9.450;2022-12-10T09:15:08;34.07;;;17.23;;
15938;SDS011;8068;51.322;9.450;2022-12-10T09:17:36;29.60;;;17.10;;
15938;SDS011;8068;51.322;9.450;2022-12-10T09:20:05;27.50;;;15.63;;
15938;SDS011;8068;51.322;9.450;2022-12-10T09:22:35;31.23;;;16.17;;
15938;SDS011;8068;51.322;9.450;2022-12-10T09:25:05;27.73;;;15.90;;
15938;SDS011;8068;51.322;9.450;2022-12-10T09:27:36;28.77;;;15.73;;
15938;SDS011;8068;51.322;9.450;2022-12-10T09:30:10;26.97;;;15.80;;
15938;SDS011;8068;51.322;9.450;2022-12-10T09:32:40;26.50;;;15.83;;
15938;SDS011;8068;51.322;9.450;2022-12-10T09:35:10;22.43;;;14.27;;
15938;SDS011;8068;51.322;9.450;2022-12-10T09:37:39;23.70;;;14.53;;
15938;SDS011;8068;51.322;9.450;2022-12-10T09:40:18;22.80;;;14.57;;
15938;SDS011;8068;51.322;9.450;2022-12-10T09:43:00;25.00;;;15.03;;
15938;SDS011;8068;51.322;9.450;2022-12-10T09:45:41;25.50;;;15.50;;
15938;SDS011;8068;51.322;9.450;2022-12-10T09:48:20;18.13;;;12.83;;
15938;SDS011;8068;51.322;9.450;2022-12-10T09:53:41;22.63;;;14.07;;
15938;SDS011;8068;51.322;9.450;2022-12-10T09:56:22;19.60;;;13.30;;
15938;SDS011;8068;51.322;9.450;2022-12-10T09:58:53;25.40;;;15.73;;
15938;SDS011;8068;51.322;9.450;2022-12-10T10:01:24;24.10;;;15.60;;
15938;SDS011;8068;51.322;9.450;2022-12-10T10:03:57;20.53;;;14.20;;
15938;SDS011;8068;51.322;9.450;2022-12-10T10:06:32;22.00;;;14.67;;
15938;SDS011;8068;51.322;9.450;2022-12-10T10:09:03;20.80;;;13.63;;
15938;SDS011;8068;51.322;9.450;2022-12-10T10:11:34;24.27;;;16.27;;
15938;SDS011;8068;51.322;9.450;2022-12-10T10:14:10;19.40;;;14.33;;
15938;SDS011;8068;51.322;9.450;2022-12-10T10:16:44;20.70;;;14.77;;
15938;SDS011;8068;51.322;9.450;2022-12-10T10:19:19;20.73;;;14.50;;
15938;SDS011;8068;51.322;9.450;2022-12-10T10:21:59;20.70;;;14.30;;
15938;SDS011;8068;51.322;9.450;2022-12-10T10:24:34;24.27;;;14.67;;
15938;SDS011;8068;51.322;9.450;2022-12-10T10:27:15;22.70;;;14.67;;
15938;SDS011;8068;51.322;9.450;2022-12-10T10:29:48;23.50;;;15.40;;
15938;SDS011;8068;51.322;9.450;2022-12-10T10:32:27;24.33;;;15.17;;
15938;SDS011;8068;51.322;9.450;2022-12-10T10:35:24;23.10;;;15.17;;
15938;SDS011;8068;51.322;9.450;2022-12-10T10:38:01;25.57;;;14.97;;
15938;SDS011;8068;51.322;9.450;2022-12-10T10:40:50;21.47;;;15.00;;
15938;SDS011;8068;51.322;9.450;2022-12-10T10:43:27;22.37;;;14.83;;
15938;SDS011;8068;51.322;9.450;2022-12-10T10:46:01;22.27;;;14.27;;
15938;SDS011;8068;51.322;9.450;2022-12-10T10:48:34;21.77;;;13.97;;
15938;SDS011;8068;51.322;9.450;2022-12-10T10:53:43;20.40;;;14.00;;
15938;SDS011;8068;51.322;9.450;2022-12-10T10:56:17;17.27;;;9.00;;
15938;SDS011;8068;51.322;9.450;2022-12-10T11:01:25;19.07;;;12.80;;
15938;SDS011;8068;51.322;9.450;2022-12-10T11:03:58;22.67;;;10.90;;
15938;SDS011;8068;51.322;9.450;2022-12-10T11:06:29;18.30;;;12.60;;
15938;SDS011;8068;51.322;9.450;2022-12-10T11:09:00;25.13;;;14.07;;
15938;SDS011;8068;51.322;9.450;2022-12-10T11:11:35;21.17;;;14.00;;
15938;SDS011;8068;51.322;9.450;2022-12-10T11:14:31;17.33;;;11.53;;
15938;SDS011;8068;51.322;9.450;2022-12-10T11:19:44;20.07;;;13.03;;
15938;SDS011;8068;51.322;9.450;2022-12-10T11:22:48;16.13;;;12.17;;
15938;SDS011;8068;51.322;9.450;2022-12-10T11:25:19;20.33;;;13.00;;
15938;SDS011;8068;51.322;9.450;2022-12-10T11:30:59;21.63;;;12.77;;
15938;SDS011;8068;51.322;9.450;2022-12-10T11:33:52;19.80;;;12.73;;
15938;SDS011;8068;51.322;9.450;2022-12-10T11:42:26;19.87;;;13.60;;
15938;SDS011;8068;51.322;9.450;2022-12-10T11:47:55;21.00;;;13.90;;
15938;SDS011;8068;51.322;9.450;2022-12-10T11:50:57;22.63;;;14.13;;
15938;SDS011;8068;51.322;9.450;2022-12-10T11:56:24;22.00;;;13.53;;
15938;SDS011;8068;51.322;9.450;2022-12-10T12:05:00;21.47;;;14.03;;
15938;SDS011;8068;51.322;9.450;2022-12-10T12:10:23;19.03;;;12.60;;
15938;SDS011;8068;51.322;9.450;2022-12-10T12:13:10;16.27;;;12.40;;
15938;SDS011;8068;51.322;9.450;2022-12-10T12:15:45;20.33;;;13.37;;
15938;SDS011;8068;51.322;9.450;2022-12-10T12:18:33;18.03;;;12.17;;
15938;SDS011;8068;51.322;9.450;2022-12-10T12:21:11;21.03;;;13.30;;
15938;SDS011;8068;51.322;9.450;2022-12-10T12:23:52;17.90;;;12.57;;
15938;SDS011;8068;51.322;9.450;2022-12-10T12:26:38;20.03;;;12.30;;
15938;SDS011;8068;51.322;9.450;2022-12-10T12:32:11;13.20;;;11.07;;
15938;SDS011;8068;51.322;9.450;2022-12-10T12:34:44;16.43;;;10.97;;
15938;SDS011;8068;51.322;9.450;2022-12-10T12:37:20;12.03;;;9.97;;
15938;SDS011;8068;51.322;9.450;2022-12-10T12:39:50;17.00;;;9.63;;
15938;SDS011;8068;51.322;9.450;2022-12-10T12:44:56;14.07;;;10.63;;
15938;SDS011;8068;51.322;9.450;2022-12-10T12:53:33;12.83;;;9.70;;
15938;SDS011;8068;51.322;9.450;2022-12-10T12:56:05;11.27;;;9.60;;
15938;SDS011;8068;51.322;9.450;2022-12-10T13:01:43;12.43;;;10.20;;
15938;SDS011;8068;51.322;9.450;2022-12-10T13:04:19;11.40;;;9.40;;
15938;SDS011;8068;51.322;9.450;2022-12-10T13:12:47;8.40;;;7.50;;
15938;SDS011;8068;51.322;9.450;2022-12-10T13:15:35;8.60;;;7.70;;
15938;SDS011;8068;51.322;9.450;2022-12-10T13:23:52;11.90;;;8.70;;
15938;SDS011;8068;51.322;9.450;2022-12-10T13:26:26;9.10;;;8.23;;
15938;SDS011;8068;51.322;9.450;2022-12-10T13:29:41;11.17;;;8.33;;
15938;SDS011;8068;51.322;9.450;2022-12-10T13:32:03;10.73;;;8.43;;
15938;SDS011;8068;51.322;9.450;2022-12-10T13:34:36;16.40;;;10.30;;
15938;SDS011;8068;51.322;9.450;2022-12-10T13:42:38;16.33;;;9.50;;
15938;SDS011;8068;51.322;9.450;2022-12-10T13:45:33;12.43;;;9.70;;
15938;SDS011;8068;51.322;9.450;2022-12-10T14:00:14;14.43;;;10.57;;
15938;SDS011;8068;51.322;9.450;2022-12-10T14:08:23;12.57;;;10.60;;
15938;SDS011;8068;51.322;9.450;2022-12-10T14:10:58;13.40;;;10.83;;
15938;SDS011;8068;51.322;9.450;2022-12-10T14:13:34;12.20;;;9.17;;
15938;SDS011;8068;51.322;9.450;2022-12-10T14:16:12;13.60;;;10.20;;
15938;SDS011;8068;51.322;9.450;2022-12-10T14:18:46;15.10;;;10.87;;
15938;SDS011;8068;51.322;9.450;2022-12-10T14:21:23;16.67;;;11.20;;
15938;SDS011;8068;51.322;9.450;2022-12-10T14:23:59;17.10;;;11.90;;
15938;SDS011;8068;51.322;9.450;2022-12-10T14:26:33;13.10;;;10.53;;
15938;SDS011;8068;51.322;9.450;2022-12-10T14:31:46;22.13;;;13.27;;
15938;SDS011;8068;51.322;9.450;2022-12-10T14:34:14;19.70;;;12.80;;
15938;SDS011;8068;51.322;9.450;2022-12-10T14:36:44;18.93;;;13.30;;
15938;SDS011;8068;51.322;9.450;2022-12-10T14:39:25;20.40;;;13.80;;
15938;SDS011;8068;51.322;9.450;2022-12-10T14:41:55;17.87;;;12.40;;
15938;SDS011;8068;51.322;9.450;2022-12-10T14:44:22;19.93;;;13.50;;
15938;SDS011;8068;51.322;9.450;2022-12-10T14:46:49;18.13;;;13.80;;
15938;SDS011;8068;51.322;9.450;2022-12-10T14:49:26;19.23;;;14.13;;
15938;SDS011;8068;51.322;9.450;2022-12-10T14:51:52;21.23;;;14.70;;
15938;SDS011;8068;51.322;9.450;2022-12-10T14:54:44;20.33;;;13.93;;
15938;SDS011;8068;51.322;9.450;2022-12-10T14:57:18;25.00;;;13.03;;
15938;SDS011;8068;51.322;9.450;2022-12-10T14:59:49;16.83;;;13.00;;
15938;SDS011;8068;51.322;9.450;2022-12-10T15:02:27;16.10;;;12.30;;
15938;SDS011;8068;51.322;9.450;2022-12-10T15:05:00;15.20;;;12.20;;
15938;SDS011;8068;51.322;9.450;2022-12-10T15:07:30;14.53;;;12.30;;
15938;SDS011;8068;51.322;9.450;2022-12-10T15:10:00;15.97;;;12.20;;
15938;SDS011;8068;51.322;9.450;2022-12-10T15:12:35;17.00;;;13.03;;
15938;SDS011;8068;51.322;9.450;2022-12-10T15:15:14;17.90;;;12.87;;
15938;SDS011;8068;51.322;9.450;2022-12-10T15:18:20;19.60;;;12.93;;
15938;SDS011;8068;51.322;9.450;2022-12-10T15:23:46;21.50;;;13.30;;
15938;SDS011;8068;51.322;9.450;2022-12-10T15:26:24;14.73;;;12.03;;
15938;SDS011;8068;51.322;9.450;2022-12-10T15:32:02;14.70;;;12.20;;
15938;SDS011;8068;51.322;9.450;2022-12-10T15:34:40;15.40;;;11.30;;
15938;SDS011;8068;51.322;9.450;2022-12-10T15:37:16;13.07;;;10.27;;
15938;SDS011;8068;51.322;9.450;2022-12-10T15:39:46;11.53;;;10.13;;
15938;SDS011;8068;51.322;9.450;2022-12-10T15:45:36;11.07;;;9.67;;
15938;SDS011;8068;51.322;9.450;2022-12-10T15:48:09;15.37;;;9.23;;
15938;SDS011;8068;51.322;9.450;2022-12-10T15:50:43;10.40;;;9.23;;
15938;SDS011;8068;51.322;9.450;2022-12-10T15:53:16;11.10;;;10.00;;
15938;SDS011;8068;51.322;9.450;2022-12-10T15:55:52;10.33;;;9.33;;
15938;SDS011;8068;51.322;9.450;2022-12-10T15:58:23;11.33;;;10.00;;
15938;SDS011;8068;51.322;9.450;2022-12-10T16:00:54;13.17;;;9.67;;
15938;SDS011;8068;51.322;9.450;2022-12-10T16:03:24;10.97;;;9.97;;
15938;SDS011;8068;51.322;9.450;2022-12-10T16:05:58;11.50;;;9.63;;
15938;SDS011;8068;51.322;9.450;2022-12-10T16:08:32;12.20;;;10.17;;
15938;SDS011;8068;51.322;9.450;2022-12-10T16:11:15;12.30;;;10.57;;
15938;SDS011;8068;51.322;9.450;2022-12-10T16:13:48;14.20;;;11.17;;
15938;SDS011;8068;51.322;9.450;2022-12-10T16:16:17;12.70;;;9.77;;
15938;SDS011;8068;51.322;9.450;2022-12-10T16:18:44;14.90;;;10.53;;
15938;SDS011;8068;51.322;9.450;2022-12-10T16:21:14;11.20;;;10.00;;
15938;SDS011;8068;51.322;9.450;2022-12-10T16:23:43;12.17;;;10.40;;
15938;SDS011;8068;51.322;9.450;2022-12-10T16:26:16;9.93;;;8.93;;
15938;SDS011;8068;51.322;9.450;2022-12-10T16:28:45;13.37;;;10.30;;
15938;SDS011;8068;51.322;9.450;2022-12-10T16:31:14;9.87;;;8.50;;
15938;SDS011;8068;51.322;9.450;2022-12-10T16:33:50;9.87;;;8.97;;
15938;SDS011;8068;51.322;9.450;2022-12-10T16:36:19;11.60;;;9.97;;
15938;SDS011;8068;51.322;9.450;2022-12-10T16:38:50;10.37;;;9.23;;
15938;SDS011;8068;51.322;9.450;2022-12-10T16:41:23;9.60;;;8.60;;
15938;SDS011;8068;51.322;9.450;2022-12-10T16:43:50;13.40;;;10.60;;
15938;SDS011;8068;51.322;9.450;2022-12-10T16:46:20;17.53;;;11.90;;
15938;SDS011;8068;51.322;9.450;2022-12-10T16:48:51;12.10;;;10.30;;
15938;SDS011;8068;51.322;9.450;2022-12-10T16:51:28;18.20;;;13.20;;
15938;SDS011;8068;51.322;9.450;2022-12-10T16:53:55;13.80;;;10.80;;
15938;SDS011;8068;51.322;9.450;2022-12-10T16:56:26;12.90;;;10.97;;
15938;SDS011;8068;51.322;9.450;2022-12-10T16:58:56;11.30;;;10.23;;
15938;SDS011;8068;51.322;9.450;2022-12-10T17:01:27;12.53;;;11.17;;